• Join FlightAware (Why Join?)
  • Login
  • US Flag 
05:47PM EDT


 

Airport Tracker/Info


-or-


 

Live Flight TrackerFlight Track Log ✈ AAL970 ✈ 17-Apr-2014 ✈ KDFW - KMCI

Flight Track Log - Related Links

Times and Time Zones

All times are in EDT time to prevent confusion due to time zone crossing. See the AAL970 flight status page for this flight to view local times or setup timezone preferences in your user account.

Time Position Orientation Groundspeed Altitude Reporting Facility
EDT Latitude Longitude Course Direction KTS MPH feet Rate Location/Type
11:49AM 32.8833 -97.0500 335° Northwest 173 199 1,300  Level Dallas / Fort Worth TRACON
11:50AM 32.8667 -97.0500 180° South 169 194 2,600 2,040 Climbing Dallas / Fort Worth TRACON
11:51AM 32.8000 -97.0667 192° South 242 278 4,400 2,340 Climbing Dallas / Fort Worth TRACON
11:52AM 33.1819 -96.9424 16° North  Level Estimated
11:52AM 32.7644 -97.1342 238° Southwest 253 291 7,500  Level Fort Worth Center
11:53AM 33.2734 -96.9884 328° Northwest  Level FlightAware Approximate
11:53AM 32.8214 -97.1908 320° Northwest 295 339 9,700  Level Fort Worth Center
11:54AM 33.3586 -97.0477 335° Northwest  Level FlightAware Approximate
11:54AM 32.9136 -97.1808 North 335 386 11,500  Level Fort Worth Center
11:55AM 33.4476 -97.0986 335° Northwest  Level FlightAware Approximate
11:55AM 33.0294 -97.1633 North 392 451 13,800  Level Fort Worth Center
11:56AM 33.1414 -97.1461 North 405 466 16,700 2,460 Climbing Fort Worth Center
11:57AM 33.2583 -97.1003 18° North 413 475 18,900 1,920 Climbing Fort Worth Center
11:58AM 33.3789 -97.0597 16° North 430 495 20,700 1,740 Climbing Fort Worth Center
11:59AM 33.4992 -97.0211 15° North 448 516 22,500 1,500 Climbing Fort Worth Center
12:00PM 33.6078 -96.9847 16° North 453 521 23,900 1,560 Climbing Fort Worth Center
12:01PM 33.7569 -96.9367 15° North 462 532 25,800 1,500 Climbing Fort Worth Center
12:02PM 33.8853 -96.8947 15° North 471 542 27,100 1,680 Climbing Fort Worth Center
12:03PM 34.0136 -96.8519 15° North 478 550 29,300 1,800 Climbing Fort Worth Center
12:04PM 34.1386 -96.8106 15° North 473 544 30,900 780 Climbing Fort Worth Center
12:05PM 34.2611 -96.7689 16° North 462 532 31,000 300 Climbing Fort Worth Center
12:06PM 34.3825 -96.7292 15° North 459 528 31,600 840 Climbing Fort Worth Center
12:07PM 34.5353 -96.6789 15° North 470 541 32,800 660 Climbing Fort Worth Center
12:08PM 34.6386 -96.6406 17° North 451 519 33,000 60 Climbing Fort Worth Center
12:09PM 34.7869 -96.5906 15° North 457 526 33,000  Level Fort Worth Center
12:10PM 34.9117 -96.5486 15° North 463 533 33,000  Level Fort Worth Center
12:11PM 35.0372 -96.5058 16° North 468 539 33,000  Level Fort Worth Center
12:12PM 35.1617 -96.4633 16° North 468 539 33,000  Level Fort Worth Center
12:13PM 35.2883 -96.4211 15° North 469 540 33,000  Level Fort Worth Center
12:15PM 35.4381 -96.3700 16° North 469 540 33,000  Level Fort Worth Center
12:16PM 35.5617 -96.3267 16° North 467 537 33,000  Level Fort Worth Center
12:17PM 35.6886 -96.2839 15° North 468 539 33,000  Level Fort Worth Center
12:17PM 35.7617 -96.2561 17° North 469 540 33,000  Level Kansas City Center
12:18PM 35.8931 -96.2117 15° North 469 540 33,000  Level Kansas City Center
12:19PM 36.0214 -96.1681 15° North 471 542 33,000  Level Kansas City Center
12:20PM 36.1497 -96.1228 16° North 472 543 33,000  Level Kansas City Center
12:21PM 36.2775 -96.0783 16° North 472 543 33,000  Level Kansas City Center
12:22PM 36.4075 -96.0392 14° North 473 544 33,000  Level Kansas City Center
12:23PM 36.5372 -96.0092 11° North 472 543 33,000  Level Kansas City Center
12:24PM 36.6928 -95.9686 12° North 472 543 33,000  Level Kansas City Center
12:25PM 36.8231 -95.9367 11° North 472 543 33,000  Level Kansas City Center
12:26PM 36.9542 -95.9044 11° North 472 543 33,000  Level Kansas City Center
12:27PM 37.0839 -95.8703 12° North 473 544 33,000  Level Kansas City Center
12:29PM 37.2147 -95.8386 11° North 473 544 33,000  Level Kansas City Center
12:30PM 37.3450 -95.8050 12° North 474 545 33,000  Level Kansas City Center
12:31PM 37.4761 -95.7703 12° North 474 545 33,000 -240 Level Kansas City Center
12:32PM 37.6058 -95.7372 11° North 474 545 32,500 -1,080 Descending Kansas City Center
12:33PM 37.7611 -95.6958 12° North 474 545 30,800 -1,560 Descending Kansas City Center
12:34PM 37.8903 -95.6619 12° North 474 545 29,300 -1,680 Descending Kansas City Center
12:35PM 38.0281 -95.6264 11° North 472 543 27,400 -1,800 Descending Kansas City Center
12:36PM 38.1617 -95.5903 12° North 472 543 25,600 -2,340 Descending Kansas City Center
12:37PM 38.2831 -95.5589 11° North 468 539 22,600 -3,060 Descending Kansas City Center
12:38PM 38.4136 -95.5231 12° North 460 529 19,300 -2,940 Descending Kansas City Center
12:39PM 38.5378 -95.4894 12° North 442 509 16,600 -2,280 Descending Kansas City Center
12:40PM 38.6497 -95.4606 11° North 402 463 14,700 -1,980 Descending Kansas City Center
12:41PM 38.7311 -95.3744 40° Northeast 368 423 12,600 -1,920 Descending Kansas City Center
12:42PM 38.7967 -95.2750 50° Northeast 366 421 10,800 -1,200 Descending Kansas City Center
12:43PM 38.8569 -95.1789 51° Northeast 349 402 10,100 -600 Descending Kansas City Center
12:44PM 38.9208 -95.0817 50° Northeast 327 376 9,600 -900 Descending Kansas City Center
12:45PM 38.9739 -95.0003 50° Northeast 300 345 8,300 -1,500 Descending Kansas City Center
12:46PM 39.0278 -94.9153 51° Northeast 288 331 6,500 -1,500 Descending Kansas City Center
12:47PM 39.0769 -94.8392 50° Northeast 277 319 5,300 -1,260 Descending Kansas City Center
12:48PM 39.1283 -94.7611 50° Northeast 271 312 3,900 -1,080 Descending Kansas City Center
12:49PM 39.1869 -94.7372 18° North 223 257 3,100 -960 Descending Kansas City Center
12:50PM 39.2364 -94.7225 13° North 167 192 2,000 -900 Descending Kansas City Center
12:51PM 39.2722 -94.7122 13° North 138 159 1,300 -540 Descending Kansas City Center
12:52PM 39.3036 -94.7025 13° North 136 157 1,000 -300 Descending Kansas City Center